sensor_id;sensor_type;location;lat;lon;timestamp;temperature;humidity
58933;DHT22;44716;51.022;6.818;2023-12-14T00:01:39;20.70;59.10
58933;DHT22;44716;51.022;6.818;2023-12-14T00:04:06;20.60;59.10
58933;DHT22;44716;51.022;6.818;2023-12-14T00:06:32;20.60;59.00
58933;DHT22;44716;51.022;6.818;2023-12-14T00:08:58;20.60;59.00
58933;DHT22;44716;51.022;6.818;2023-12-14T00:11:23;20.60;59.10
58933;DHT22;44716;51.022;6.818;2023-12-14T00:13:49;20.60;59.10
58933;DHT22;44716;51.022;6.818;2023-12-14T00:16:14;20.60;59.10
58933;DHT22;44716;51.022;6.818;2023-12-14T00:18:40;20.60;59.10
58933;DHT22;44716;51.022;6.818;2023-12-14T00:21:05;20.60;59.20
58933;DHT22;44716;51.022;6.818;2023-12-14T00:23:31;20.60;59.20
58933;DHT22;44716;51.022;6.818;2023-12-14T00:25:56;20.50;59.20
58933;DHT22;44716;51.022;6.818;2023-12-14T00:28:22;20.60;59.20
58933;DHT22;44716;51.022;6.818;2023-12-14T00:30:48;20.60;59.20
58933;DHT22;44716;51.022;6.818;2023-12-14T00:33:13;20.60;59.10
58933;DHT22;44716;51.022;6.818;2023-12-14T00:35:39;20.60;59.10
58933;DHT22;44716;51.022;6.818;2023-12-14T00:38:04;20.60;59.20
58933;DHT22;44716;51.022;6.818;2023-12-14T00:40:30;20.60;59.20
58933;DHT22;44716;51.022;6.818;2023-12-14T00:42:55;20.50;59.20
58933;DHT22;44716;51.022;6.818;2023-12-14T00:45:21;20.60;59.20
58933;DHT22;44716;51.022;6.818;2023-12-14T00:47:46;20.50;59.20
58933;DHT22;44716;51.022;6.818;2023-12-14T00:50:12;20.50;59.20
58933;DHT22;44716;51.022;6.818;2023-12-14T00:52:37;20.50;59.20
58933;DHT22;44716;51.022;6.818;2023-12-14T00:55:03;20.50;59.20
58933;DHT22;44716;51.022;6.818;2023-12-14T00:57:28;20.50;59.10
58933;DHT22;44716;51.022;6.818;2023-12-14T00:59:54;20.50;59.10
58933;DHT22;44716;51.022;6.818;2023-12-14T01:02:19;20.50;59.20
58933;DHT22;44716;51.022;6.818;2023-12-14T01:04:45;20.50;59.20
58933;DHT22;44716;51.022;6.818;2023-12-14T01:07:11;20.50;59.30
58933;DHT22;44716;51.022;6.818;2023-12-14T01:09:36;20.50;59.20
58933;DHT22;44716;51.022;6.818;2023-12-14T01:12:02;20.40;59.20
58933;DHT22;44716;51.022;6.818;2023-12-14T01:14:27;20.50;59.30
58933;DHT22;44716;51.022;6.818;2023-12-14T01:16:53;20.50;59.30
58933;DHT22;44716;51.022;6.818;2023-12-14T01:19:18;20.50;59.20
58933;DHT22;44716;51.022;6.818;2023-12-14T01:21:44;20.50;59.20
58933;DHT22;44716;51.022;6.818;2023-12-14T01:24:09;20.50;59.20
58933;DHT22;44716;51.022;6.818;2023-12-14T01:26:35;20.40;59.20
58933;DHT22;44716;51.022;6.818;2023-12-14T01:29:00;20.40;59.20
58933;DHT22;44716;51.022;6.818;2023-12-14T01:31:26;20.40;59.20
58933;DHT22;44716;51.022;6.818;2023-12-14T01:33:52;20.40;59.30
58933;DHT22;44716;51.022;6.818;2023-12-14T01:36:24;20.40;59.30
58933;DHT22;44716;51.022;6.818;2023-12-14T01:38:50;20.40;59.30
58933;DHT22;44716;51.022;6.818;2023-12-14T01:41:16;20.40;59.30
58933;DHT22;44716;51.022;6.818;2023-12-14T01:43:41;20.40;59.30
58933;DHT22;44716;51.022;6.818;2023-12-14T01:46:07;20.40;59.30
58933;DHT22;44716;51.022;6.818;2023-12-14T01:48:33;20.40;59.30
58933;DHT22;44716;51.022;6.818;2023-12-14T01:50:58;20.40;59.30
58933;DHT22;44716;51.022;6.818;2023-12-14T01:53:24;20.40;59.20
58933;DHT22;44716;51.022;6.818;2023-12-14T01:55:49;20.30;59.30
58933;DHT22;44716;51.022;6.818;2023-12-14T01:58:15;20.40;59.30
58933;DHT22;44716;51.022;6.818;2023-12-14T02:00:46;20.40;59.30
58933;DHT22;44716;51.022;6.818;2023-12-14T02:03:14;20.40;59.20
58933;DHT22;44716;51.022;6.818;2023-12-14T02:05:40;20.40;59.30
58933;DHT22;44716;51.022;6.818;2023-12-14T02:08:05;20.40;59.30
58933;DHT22;44716;51.022;6.818;2023-12-14T02:10:31;20.30;59.20
58933;DHT22;44716;51.022;6.818;2023-12-14T02:12:56;20.40;59.20
58933;DHT22;44716;51.022;6.818;2023-12-14T02:15:22;20.40;59.30
58933;DHT22;44716;51.022;6.818;2023-12-14T02:17:48;20.40;59.20
58933;DHT22;44716;51.022;6.818;2023-12-14T02:20:14;20.40;59.30
58933;DHT22;44716;51.022;6.818;2023-12-14T02:25:34;20.30;59.20
58933;DHT22;44716;51.022;6.818;2023-12-14T02:28:00;20.30;59.20
58933;DHT22;44716;51.022;6.818;2023-12-14T02:30:25;20.30;59.20
58933;DHT22;44716;51.022;6.818;2023-12-14T02:32:51;20.40;59.20
58933;DHT22;44716;51.022;6.818;2023-12-14T02:35:16;20.30;59.20
58933;DHT22;44716;51.022;6.818;2023-12-14T02:37:43;20.40;59.20
58933;DHT22;44716;51.022;6.818;2023-12-14T02:40:09;20.30;59.10
58933;DHT22;44716;51.022;6.818;2023-12-14T02:42:35;20.30;59.10
58933;DHT22;44716;51.022;6.818;2023-12-14T02:45:01;20.30;59.10
58933;DHT22;44716;51.022;6.818;2023-12-14T02:47:27;20.30;59.10
58933;DHT22;44716;51.022;6.818;2023-12-14T02:49:53;20.30;59.10
58933;DHT22;44716;51.022;6.818;2023-12-14T02:52:19;20.30;59.10
58933;DHT22;44716;51.022;6.818;2023-12-14T02:54:44;20.30;59.10
58933;DHT22;44716;51.022;6.818;2023-12-14T02:57:10;20.30;59.10
58933;DHT22;44716;51.022;6.818;2023-12-14T02:59:35;20.30;59.10
58933;DHT22;44716;51.022;6.818;2023-12-14T03:02:01;20.30;59.20
58933;DHT22;44716;51.022;6.818;2023-12-14T03:04:26;20.30;59.20
58933;DHT22;44716;51.022;6.818;2023-12-14T03:06:52;20.30;59.10
58933;DHT22;44716;51.022;6.818;2023-12-14T03:09:17;20.30;59.20
58933;DHT22;44716;51.022;6.818;2023-12-14T03:11:44;20.30;59.10
58933;DHT22;44716;51.022;6.818;2023-12-14T03:14:10;20.30;59.10
58933;DHT22;44716;51.022;6.818;2023-12-14T03:16:36;20.30;59.10
58933;DHT22;44716;51.022;6.818;2023-12-14T03:19:02;20.30;59.10
58933;DHT22;44716;51.022;6.818;2023-12-14T03:21:28;20.30;59.10
58933;DHT22;44716;51.022;6.818;2023-12-14T03:23:54;20.30;59.20
58933;DHT22;44716;51.022;6.818;2023-12-14T03:26:19;20.20;59.20
58933;DHT22;44716;51.022;6.818;2023-12-14T03:28:45;20.30;59.10
58933;DHT22;44716;51.022;6.818;2023-12-14T03:31:11;20.20;59.10
58933;DHT22;44716;51.022;6.818;2023-12-14T03:33:37;20.30;59.10
58933;DHT22;44716;51.022;6.818;2023-12-14T03:36:03;20.30;59.10
58933;DHT22;44716;51.022;6.818;2023-12-14T03:38:28;20.30;59.10
58933;DHT22;44716;51.022;6.818;2023-12-14T03:40:54;20.20;59.10
58933;DHT22;44716;51.022;6.818;2023-12-14T03:43:19;20.30;59.00
58933;DHT22;44716;51.022;6.818;2023-12-14T03:45:45;20.30;59.10
58933;DHT22;44716;51.022;6.818;2023-12-14T03:48:11;20.20;59.00
58933;DHT22;44716;51.022;6.818;2023-12-14T03:50:36;20.20;59.00
58933;DHT22;44716;51.022;6.818;2023-12-14T03:53:02;20.30;59.00
58933;DHT22;44716;51.022;6.818;2023-12-14T03:55:27;20.20;58.90
58933;DHT22;44716;51.022;6.818;2023-12-14T03:57:53;20.20;58.90
58933;DHT22;44716;51.022;6.818;2023-12-14T04:00:18;20.20;58.90
58933;DHT22;44716;51.022;6.818;2023-12-14T04:02:44;20.20;59.00
58933;DHT22;44716;51.022;6.818;2023-12-14T04:05:09;20.20;59.10
58933;DHT22;44716;51.022;6.818;2023-12-14T04:07:38;20.20;59.10
58933;DHT22;44716;51.022;6.818;2023-12-14T04:10:08;20.20;59.00
58933;DHT22;44716;51.022;6.818;2023-12-14T04:12:35;20.20;59.00
58933;DHT22;44716;51.022;6.818;2023-12-14T04:15:01;20.20;59.00
58933;DHT22;44716;51.022;6.818;2023-12-14T04:17:26;20.20;59.10
58933;DHT22;44716;51.022;6.818;2023-12-14T04:19:52;20.20;59.00
58933;DHT22;44716;51.022;6.818;2023-12-14T04:22:17;20.20;59.00
58933;DHT22;44716;51.022;6.818;2023-12-14T04:24:43;20.10;59.00
58933;DHT22;44716;51.022;6.818;2023-12-14T04:27:08;20.10;59.00
58933;DHT22;44716;51.022;6.818;2023-12-14T04:29:34;20.10;59.00
58933;DHT22;44716;51.022;6.818;2023-12-14T04:32:00;20.10;59.00
58933;DHT22;44716;51.022;6.818;2023-12-14T04:34:25;20.10;58.90
58933;DHT22;44716;51.022;6.818;2023-12-14T04:36:51;20.10;58.90
58933;DHT22;44716;51.022;6.818;2023-12-14T04:39:18;20.10;59.00
58933;DHT22;44716;51.022;6.818;2023-12-14T04:41:43;20.20;59.00
58933;DHT22;44716;51.022;6.818;2023-12-14T04:44:09;20.20;58.90
58933;DHT22;44716;51.022;6.818;2023-12-14T04:46:35;20.20;58.90
58933;DHT22;44716;51.022;6.818;2023-12-14T04:49:01;20.10;58.90
58933;DHT22;44716;51.022;6.818;2023-12-14T04:51:27;20.20;58.90
58933;DHT22;44716;51.022;6.818;2023-12-14T04:53:52;20.10;58.80
58933;DHT22;44716;51.022;6.818;2023-12-14T04:56:18;20.10;58.80
58933;DHT22;44716;51.022;6.818;2023-12-14T04:58:43;20.10;58.90
58933;DHT22;44716;51.022;6.818;2023-12-14T05:01:09;20.10;58.80
58933;DHT22;44716;51.022;6.818;2023-12-14T05:03:34;20.10;58.80
58933;DHT22;44716;51.022;6.818;2023-12-14T05:06:00;20.10;58.80
58933;DHT22;44716;51.022;6.818;2023-12-14T05:08:26;20.10;58.80
58933;DHT22;44716;51.022;6.818;2023-12-14T05:10:51;20.10;58.80
58933;DHT22;44716;51.022;6.818;2023-12-14T05:13:17;20.10;58.80
58933;DHT22;44716;51.022;6.818;2023-12-14T05:15:42;20.10;58.80
58933;DHT22;44716;51.022;6.818;2023-12-14T05:18:08;20.10;58.80
58933;DHT22;44716;51.022;6.818;2023-12-14T05:20:34;20.10;58.80
58933;DHT22;44716;51.022;6.818;2023-12-14T05:22:59;20.10;58.80
58933;DHT22;44716;51.022;6.818;2023-12-14T05:25:25;20.10;58.80
58933;DHT22;44716;51.022;6.818;2023-12-14T05:27:51;20.10;58.80
58933;DHT22;44716;51.022;6.818;2023-12-14T05:30:16;20.10;58.80
58933;DHT22;44716;51.022;6.818;2023-12-14T05:32:43;20.10;58.80
58933;DHT22;44716;51.022;6.818;2023-12-14T05:35:09;20.00;58.90
58933;DHT22;44716;51.022;6.818;2023-12-14T05:37:35;20.10;59.00
58933;DHT22;44716;51.022;6.818;2023-12-14T05:40:01;20.00;58.80
58933;DHT22;44716;51.022;6.818;2023-12-14T05:42:26;20.10;58.90
58933;DHT22;44716;51.022;6.818;2023-12-14T05:44:52;20.10;58.90
58933;DHT22;44716;51.022;6.818;2023-12-14T05:47:17;20.00;59.00
58933;DHT22;44716;51.022;6.818;2023-12-14T05:49:43;20.10;59.70
58933;DHT22;44716;51.022;6.818;2023-12-14T05:52:09;20.10;59.10
58933;DHT22;44716;51.022;6.818;2023-12-14T05:54:38;20.10;59.30
58933;DHT22;44716;51.022;6.818;2023-12-14T05:57:04;20.10;59.40
58933;DHT22;44716;51.022;6.818;2023-12-14T05:59:30;20.20;59.50
58933;DHT22;44716;51.022;6.818;2023-12-14T06:01:59;20.20;59.50
58933;DHT22;44716;51.022;6.818;2023-12-14T06:04:26;20.20;59.50
58933;DHT22;44716;51.022;6.818;2023-12-14T06:06:51;20.30;59.50
58933;DHT22;44716;51.022;6.818;2023-12-14T06:09:17;20.30;59.50
58933;DHT22;44716;51.022;6.818;2023-12-14T06:11:44;20.30;59.40
58933;DHT22;44716;51.022;6.818;2023-12-14T06:14:10;20.30;59.30
58933;DHT22;44716;51.022;6.818;2023-12-14T06:16:35;20.30;59.30
58933;DHT22;44716;51.022;6.818;2023-12-14T06:19:01;20.30;59.30
58933;DHT22;44716;51.022;6.818;2023-12-14T06:21:26;20.40;59.30
58933;DHT22;44716;51.022;6.818;2023-12-14T06:23:55;20.40;59.20
58933;DHT22;44716;51.022;6.818;2023-12-14T06:26:20;20.40;59.20
58933;DHT22;44716;51.022;6.818;2023-12-14T06:28:46;20.40;59.20
58933;DHT22;44716;51.022;6.818;2023-12-14T06:31:12;20.40;59.30
58933;DHT22;44716;51.022;6.818;2023-12-14T06:33:38;20.40;59.20
58933;DHT22;44716;51.022;6.818;2023-12-14T06:36:03;20.40;59.20
58933;DHT22;44716;51.022;6.818;2023-12-14T06:38:30;20.30;59.20
58933;DHT22;44716;51.022;6.818;2023-12-14T06:40:56;20.30;59.30
58933;DHT22;44716;51.022;6.818;2023-12-14T06:43:22;20.40;59.30
58933;DHT22;44716;51.022;6.818;2023-12-14T06:45:47;20.40;59.20
58933;DHT22;44716;51.022;6.818;2023-12-14T06:48:13;20.40;59.20
58933;DHT22;44716;51.022;6.818;2023-12-14T06:50:38;20.30;59.20
58933;DHT22;44716;51.022;6.818;2023-12-14T06:53:04;20.30;59.20
58933;DHT22;44716;51.022;6.818;2023-12-14T06:55:30;20.40;59.20
58933;DHT22;44716;51.022;6.818;2023-12-14T06:57:55;20.40;59.20
58933;DHT22;44716;51.022;6.818;2023-12-14T07:00:21;20.40;59.20
58933;DHT22;44716;51.022;6.818;2023-12-14T07:02:46;20.40;59.10
58933;DHT22;44716;51.022;6.818;2023-12-14T07:05:12;20.40;59.10
58933;DHT22;44716;51.022;6.818;2023-12-14T07:07:37;20.40;59.10
58933;DHT22;44716;51.022;6.818;2023-12-14T07:10:03;20.40;59.10
58933;DHT22;44716;51.022;6.818;2023-12-14T07:12:29;20.40;59.00
58933;DHT22;44716;51.022;6.818;2023-12-14T07:14:54;20.40;59.10
58933;DHT22;44716;51.022;6.818;2023-12-14T07:17:20;20.40;59.10
58933;DHT22;44716;51.022;6.818;2023-12-14T07:19:45;20.40;59.00
58933;DHT22;44716;51.022;6.818;2023-12-14T07:22:11;20.50;59.00
58933;DHT22;44716;51.022;6.818;2023-12-14T07:24:36;20.40;59.00
58933;DHT22;44716;51.022;6.818;2023-12-14T07:27:02;20.40;59.00
58933;DHT22;44716;51.022;6.818;2023-12-14T07:29:28;20.40;59.00
58933;DHT22;44716;51.022;6.818;2023-12-14T07:31:53;20.40;59.00
58933;DHT22;44716;51.022;6.818;2023-12-14T07:34:19;20.40;59.10
58933;DHT22;44716;51.022;6.818;2023-12-14T07:36:46;20.40;58.90
58933;DHT22;44716;51.022;6.818;2023-12-14T07:39:11;20.50;58.90
58933;DHT22;44716;51.022;6.818;2023-12-14T07:41:37;20.40;59.60
58933;DHT22;44716;51.022;6.818;2023-12-14T07:44:03;20.40;59.00
58933;DHT22;44716;51.022;6.818;2023-12-14T07:46:29;20.40;58.90
58933;DHT22;44716;51.022;6.818;2023-12-14T07:48:55;20.40;59.00
58933;DHT22;44716;51.022;6.818;2023-12-14T07:51:21;20.40;59.00
58933;DHT22;44716;51.022;6.818;2023-12-14T07:53:46;20.40;59.00
58933;DHT22;44716;51.022;6.818;2023-12-14T07:56:12;20.40;59.00
58933;DHT22;44716;51.022;6.818;2023-12-14T07:58:37;20.40;59.00
58933;DHT22;44716;51.022;6.818;2023-12-14T08:01:03;20.40;59.00
58933;DHT22;44716;51.022;6.818;2023-12-14T08:03:29;20.40;58.90
58933;DHT22;44716;51.022;6.818;2023-12-14T08:05:54;20.40;58.90
58933;DHT22;44716;51.022;6.818;2023-12-14T08:08:20;20.40;58.90
58933;DHT22;44716;51.022;6.818;2023-12-14T08:10:45;20.40;59.00
58933;DHT22;44716;51.022;6.818;2023-12-14T08:13:11;20.40;59.00
58933;DHT22;44716;51.022;6.818;2023-12-14T08:15:36;20.40;58.90
58933;DHT22;44716;51.022;6.818;2023-12-14T08:18:02;20.30;58.90
58933;DHT22;44716;51.022;6.818;2023-12-14T08:20:27;20.40;58.90
58933;DHT22;44716;51.022;6.818;2023-12-14T08:22:53;20.40;58.90
58933;DHT22;44716;51.022;6.818;2023-12-14T08:25:19;20.30;58.90
58933;DHT22;44716;51.022;6.818;2023-12-14T08:27:45;20.40;58.90
58933;DHT22;44716;51.022;6.818;2023-12-14T08:30:11;20.40;58.90
58933;DHT22;44716;51.022;6.818;2023-12-14T08:32:36;20.30;58.90
58933;DHT22;44716;51.022;6.818;2023-12-14T08:35:02;20.40;59.00
58933;DHT22;44716;51.022;6.818;2023-12-14T08:37:28;20.30;58.90
58933;DHT22;44716;51.022;6.818;2023-12-14T08:39:54;20.30;59.00
58933;DHT22;44716;51.022;6.818;2023-12-14T08:42:20;20.30;59.00
58933;DHT22;44716;51.022;6.818;2023-12-14T08:44:46;20.30;58.90
58933;DHT22;44716;51.022;6.818;2023-12-14T08:47:12;20.30;58.90
58933;DHT22;44716;51.022;6.818;2023-12-14T08:49:37;20.30;58.90
58933;DHT22;44716;51.022;6.818;2023-12-14T08:52:03;20.30;58.90
58933;DHT22;44716;51.022;6.818;2023-12-14T08:54:29;20.40;58.90
58933;DHT22;44716;51.022;6.818;2023-12-14T08:56:55;20.30;58.90
58933;DHT22;44716;51.022;6.818;2023-12-14T08:59:21;20.30;58.90
58933;DHT22;44716;51.022;6.818;2023-12-14T09:01:46;20.30;58.90
58933;DHT22;44716;51.022;6.818;2023-12-14T09:04:12;20.30;58.90
58933;DHT22;44716;51.022;6.818;2023-12-14T09:06:38;20.30;58.80
58933;DHT22;44716;51.022;6.818;2023-12-14T09:09:07;20.30;58.90
58933;DHT22;44716;51.022;6.818;2023-12-14T09:11:33;20.30;58.80
58933;DHT22;44716;51.022;6.818;2023-12-14T09:14:00;20.30;58.80
58933;DHT22;44716;51.022;6.818;2023-12-14T09:16:25;20.30;58.80
58933;DHT22;44716;51.022;6.818;2023-12-14T09:18:51;20.30;58.80
58933;DHT22;44716;51.022;6.818;2023-12-14T09:21:16;20.20;58.90
58933;DHT22;44716;51.022;6.818;2023-12-14T09:23:42;20.30;58.90
58933;DHT22;44716;51.022;6.818;2023-12-14T09:26:08;20.30;58.90
58933;DHT22;44716;51.022;6.818;2023-12-14T09:28:33;20.20;58.80
58933;DHT22;44716;51.022;6.818;2023-12-14T09:30:59;20.20;58.80
58933;DHT22;44716;51.022;6.818;2023-12-14T09:33:24;20.20;58.80
58933;DHT22;44716;51.022;6.818;2023-12-14T09:35:50;20.20;58.80
58933;DHT22;44716;51.022;6.818;2023-12-14T09:38:16;20.20;58.90
58933;DHT22;44716;51.022;6.818;2023-12-14T09:40:43;20.20;58.80
58933;DHT22;44716;51.022;6.818;2023-12-14T09:43:08;20.20;58.80
58933;DHT22;44716;51.022;6.818;2023-12-14T09:45:34;20.20;58.80
58933;DHT22;44716;51.022;6.818;2023-12-14T09:48:00;20.20;58.80
58933;DHT22;44716;51.022;6.818;2023-12-14T09:50:26;20.20;58.80
58933;DHT22;44716;51.022;6.818;2023-12-14T09:52:51;20.20;58.80
58933;DHT22;44716;51.022;6.818;2023-12-14T09:55:17;20.20;58.80
58933;DHT22;44716;51.022;6.818;2023-12-14T09:57:43;20.20;58.80
58933;DHT22;44716;51.022;6.818;2023-12-14T10:00:08;20.20;58.80
58933;DHT22;44716;51.022;6.818;2023-12-14T10:02:39;20.20;58.80
58933;DHT22;44716;51.022;6.818;2023-12-14T10:05:08;20.20;58.80
58933;DHT22;44716;51.022;6.818;2023-12-14T10:07:40;20.20;58.80
58933;DHT22;44716;51.022;6.818;2023-12-14T10:10:09;20.20;58.80
58933;DHT22;44716;51.022;6.818;2023-12-14T10:12:39;20.20;58.80
58933;DHT22;44716;51.022;6.818;2023-12-14T10:15:15;20.20;58.80
58933;DHT22;44716;51.022;6.818;2023-12-14T10:17:40;20.20;58.80
58933;DHT22;44716;51.022;6.818;2023-12-14T10:20:06;20.20;58.80
58933;DHT22;44716;51.022;6.818;2023-12-14T10:22:34;20.20;58.80
58933;DHT22;44716;51.022;6.818;2023-12-14T10:25:02;20.20;58.70
58933;DHT22;44716;51.022;6.818;2023-12-14T10:27:28;20.20;58.70
58933;DHT22;44716;51.022;6.818;2023-12-14T10:29:55;20.20;58.80
58933;DHT22;44716;51.022;6.818;2023-12-14T10:32:21;20.20;58.80
58933;DHT22;44716;51.022;6.818;2023-12-14T10:34:46;20.10;58.80
58933;DHT22;44716;51.022;6.818;2023-12-14T10:37:12;20.10;58.80
58933;DHT22;44716;51.022;6.818;2023-12-14T10:39:38;20.10;58.70
58933;DHT22;44716;51.022;6.818;2023-12-14T10:42:06;20.20;58.80
58933;DHT22;44716;51.022;6.818;2023-12-14T10:44:35;20.20;58.70
58933;DHT22;44716;51.022;6.818;2023-12-14T10:47:01;20.20;58.80
58933;DHT22;44716;51.022;6.818;2023-12-14T10:49:27;20.20;58.70
58933;DHT22;44716;51.022;6.818;2023-12-14T10:51:54;20.10;58.70
58933;DHT22;44716;51.022;6.818;2023-12-14T10:54:23;20.10;58.70
58933;DHT22;44716;51.022;6.818;2023-12-14T10:56:48;20.10;58.70
58933;DHT22;44716;51.022;6.818;2023-12-14T10:59:17;20.10;58.70
58933;DHT22;44716;51.022;6.818;2023-12-14T11:01:43;20.10;59.30
58933;DHT22;44716;51.022;6.818;2023-12-14T11:04:08;20.10;58.70
58933;DHT22;44716;51.022;6.818;2023-12-14T11:06:39;20.10;58.80
58933;DHT22;44716;51.022;6.818;2023-12-14T11:09:05;20.10;58.70
58933;DHT22;44716;51.022;6.818;2023-12-14T11:11:39;20.10;58.80
58933;DHT22;44716;51.022;6.818;2023-12-14T11:14:05;20.10;58.70
58933;DHT22;44716;51.022;6.818;2023-12-14T11:16:33;20.10;59.30
58933;DHT22;44716;51.022;6.818;2023-12-14T11:21:43;20.10;58.70
58933;DHT22;44716;51.022;6.818;2023-12-14T11:24:09;20.10;58.70
58933;DHT22;44716;51.022;6.818;2023-12-14T11:26:34;20.10;58.60
58933;DHT22;44716;51.022;6.818;2023-12-14T11:29:00;20.10;58.70
58933;DHT22;44716;51.022;6.818;2023-12-14T11:31:25;20.10;58.60
58933;DHT22;44716;51.022;6.818;2023-12-14T11:33:53;20.10;58.60
58933;DHT22;44716;51.022;6.818;2023-12-14T11:36:18;20.10;58.60
58933;DHT22;44716;51.022;6.818;2023-12-14T11:38:44;20.10;58.60
58933;DHT22;44716;51.022;6.818;2023-12-14T11:41:10;20.10;58.60
58933;DHT22;44716;51.022;6.818;2023-12-14T11:43:42;20.00;58.60
58933;DHT22;44716;51.022;6.818;2023-12-14T11:46:08;20.10;58.70
58933;DHT22;44716;51.022;6.818;2023-12-14T11:48:33;20.00;58.60
58933;DHT22;44716;51.022;6.818;2023-12-14T11:50:59;20.10;58.70
58933;DHT22;44716;51.022;6.818;2023-12-14T11:53:25;20.10;58.60
58933;DHT22;44716;51.022;6.818;2023-12-14T11:55:51;20.10;58.70
58933;DHT22;44716;51.022;6.818;2023-12-14T11:58:17;20.00;58.60
58933;DHT22;44716;51.022;6.818;2023-12-14T12:00:42;20.10;58.60
58933;DHT22;44716;51.022;6.818;2023-12-14T12:05:40;20.00;58.60
58933;DHT22;44716;51.022;6.818;2023-12-14T12:08:06;20.10;58.60
58933;DHT22;44716;51.022;6.818;2023-12-14T12:10:32;20.10;58.60
58933;DHT22;44716;51.022;6.818;2023-12-14T12:12:59;20.10;58.70
58933;DHT22;44716;51.022;6.818;2023-12-14T12:15:24;20.10;58.70
58933;DHT22;44716;51.022;6.818;2023-12-14T12:17:50;20.10;58.70
58933;DHT22;44716;51.022;6.818;2023-12-14T12:20:15;20.20;58.70
58933;DHT22;44716;51.022;6.818;2023-12-14T12:22:41;20.20;58.70
58933;DHT22;44716;51.022;6.818;2023-12-14T12:25:06;20.30;58.80
58933;DHT22;44716;51.022;6.818;2023-12-14T12:27:32;20.30;58.70
58933;DHT22;44716;51.022;6.818;2023-12-14T12:29:57;20.30;58.70
58933;DHT22;44716;51.022;6.818;2023-12-14T12:32:23;20.40;58.70
58933;DHT22;44716;51.022;6.818;2023-12-14T12:34:49;20.40;58.70
58933;DHT22;44716;51.022;6.818;2023-12-14T12:37:14;20.40;58.60
58933;DHT22;44716;51.022;6.818;2023-12-14T12:39:40;20.40;58.60
58933;DHT22;44716;51.022;6.818;2023-12-14T12:42:05;20.50;58.60
58933;DHT22;44716;51.022;6.818;2023-12-14T12:44:31;20.50;58.50
58933;DHT22;44716;51.022;6.818;2023-12-14T12:46:56;20.60;58.60
58933;DHT22;44716;51.022;6.818;2023-12-14T12:49:24;20.50;58.60
58933;DHT22;44716;51.022;6.818;2023-12-14T12:51:49;20.50;58.70
58933;DHT22;44716;51.022;6.818;2023-12-14T12:54:15;20.60;58.60
58933;DHT22;44716;51.022;6.818;2023-12-14T12:56:40;20.60;58.50
58933;DHT22;44716;51.022;6.818;2023-12-14T12:59:08;20.60;58.50
58933;DHT22;44716;51.022;6.818;2023-12-14T13:01:33;20.60;58.50
58933;DHT22;44716;51.022;6.818;2023-12-14T13:03:59;20.60;58.60
58933;DHT22;44716;51.022;6.818;2023-12-14T13:06:26;20.60;58.60
58933;DHT22;44716;51.022;6.818;2023-12-14T13:08:52;20.60;58.60
58933;DHT22;44716;51.022;6.818;2023-12-14T13:11:18;20.60;58.70
58933;DHT22;44716;51.022;6.818;2023-12-14T13:13:43;20.70;58.80
58933;DHT22;44716;51.022;6.818;2023-12-14T13:16:10;20.70;58.80
58933;DHT22;44716;51.022;6.818;2023-12-14T13:18:36;20.70;59.50
58933;DHT22;44716;51.022;6.818;2023-12-14T13:21:01;20.70;59.00
58933;DHT22;44716;51.022;6.818;2023-12-14T13:23:27;20.70;59.20
58933;DHT22;44716;51.022;6.818;2023-12-14T13:25:52;20.70;59.10
58933;DHT22;44716;51.022;6.818;2023-12-14T13:28:18;20.60;59.30
58933;DHT22;44716;51.022;6.818;2023-12-14T13:30:43;20.70;59.30
58933;DHT22;44716;51.022;6.818;2023-12-14T13:33:09;20.70;59.40
58933;DHT22;44716;51.022;6.818;2023-12-14T13:35:37;20.70;59.40
58933;DHT22;44716;51.022;6.818;2023-12-14T13:38:02;20.70;59.50
58933;DHT22;44716;51.022;6.818;2023-12-14T13:40:28;20.70;59.40
58933;DHT22;44716;51.022;6.818;2023-12-14T13:42:53;20.60;59.40
58933;DHT22;44716;51.022;6.818;2023-12-14T13:45:19;20.60;59.40
58933;DHT22;44716;51.022;6.818;2023-12-14T13:47:44;20.70;59.40
58933;DHT22;44716;51.022;6.818;2023-12-14T13:50:10;20.70;59.40
58933;DHT22;44716;51.022;6.818;2023-12-14T13:52:35;20.60;59.30
58933;DHT22;44716;51.022;6.818;2023-12-14T13:55:01;20.60;59.30
58933;DHT22;44716;51.022;6.818;2023-12-14T13:57:27;20.60;59.30
58933;DHT22;44716;51.022;6.818;2023-12-14T13:59:52;20.60;59.40
58933;DHT22;44716;51.022;6.818;2023-12-14T14:02:18;20.60;59.40
58933;DHT22;44716;51.022;6.818;2023-12-14T14:04:43;20.60;59.40
58933;DHT22;44716;51.022;6.818;2023-12-14T14:07:09;20.50;59.30
58933;DHT22;44716;51.022;6.818;2023-12-14T14:09:34;20.60;60.00
58933;DHT22;44716;51.022;6.818;2023-12-14T14:12:00;20.60;59.40
58933;DHT22;44716;51.022;6.818;2023-12-14T14:14:26;20.60;59.30
58933;DHT22;44716;51.022;6.818;2023-12-14T14:16:51;20.60;59.30
58933;DHT22;44716;51.022;6.818;2023-12-14T14:19:17;20.50;59.30
58933;DHT22;44716;51.022;6.818;2023-12-14T14:21:43;20.50;59.30
58933;DHT22;44716;51.022;6.818;2023-12-14T14:24:08;20.60;59.20
58933;DHT22;44716;51.022;6.818;2023-12-14T14:26:34;20.50;59.20
58933;DHT22;44716;51.022;6.818;2023-12-14T14:28:59;20.50;59.30
58933;DHT22;44716;51.022;6.818;2023-12-14T14:31:27;20.50;59.30
58933;DHT22;44716;51.022;6.818;2023-12-14T14:33:57;20.50;59.30
58933;DHT22;44716;51.022;6.818;2023-12-14T14:36:23;20.50;59.50
58933;DHT22;44716;51.022;6.818;2023-12-14T14:38:48;20.50;59.40
58933;DHT22;44716;51.022;6.818;2023-12-14T14:41:14;20.50;59.40
58933;DHT22;44716;51.022;6.818;2023-12-14T14:43:39;20.50;59.40
58933;DHT22;44716;51.022;6.818;2023-12-14T14:46:05;20.50;59.30
58933;DHT22;44716;51.022;6.818;2023-12-14T14:48:31;20.50;59.30
58933;DHT22;44716;51.022;6.818;2023-12-14T14:50:57;20.50;59.30
58933;DHT22;44716;51.022;6.818;2023-12-14T14:53:22;20.50;59.20
58933;DHT22;44716;51.022;6.818;2023-12-14T14:55:48;20.50;59.20
58933;DHT22;44716;51.022;6.818;2023-12-14T14:58:18;20.50;59.30
58933;DHT22;44716;51.022;6.818;2023-12-14T15:00:45;20.50;59.30
58933;DHT22;44716;51.022;6.818;2023-12-14T15:03:10;20.50;59.20
58933;DHT22;44716;51.022;6.818;2023-12-14T15:05:36;20.50;59.10
58933;DHT22;44716;51.022;6.818;2023-12-14T15:08:02;20.50;59.10
58933;DHT22;44716;51.022;6.818;2023-12-14T15:10:28;20.50;59.10
58933;DHT22;44716;51.022;6.818;2023-12-14T15:12:54;20.50;59.10
58933;DHT22;44716;51.022;6.818;2023-12-14T15:15:19;20.40;59.10
58933;DHT22;44716;51.022;6.818;2023-12-14T15:17:45;20.40;59.10
58933;DHT22;44716;51.022;6.818;2023-12-14T15:20:10;20.40;59.20
58933;DHT22;44716;51.022;6.818;2023-12-14T15:22:36;20.40;59.10
58933;DHT22;44716;51.022;6.818;2023-12-14T15:25:02;20.40;59.00
58933;DHT22;44716;51.022;6.818;2023-12-14T15:27:29;20.40;59.10
58933;DHT22;44716;51.022;6.818;2023-12-14T15:29:56;20.50;59.20